Time;durP1;ratioP1;P1;durP2;ratioP2;P2;SDS_P1;SDS_P2;PMS_P1;PMS_P2;Temp;Humidity;BMP_temperature;BMP_pressure;BME280_temperature;BME280_humidity;BME280_pressure;Samples;Min_cycle;Max_cycle;Signal;HPM_P1;HPM_P2
2021/04/01 00:00:32;;;;;;;;;;;;;;;7.31;100.00;99755.81;5116236;28;19932;-79
2021/04/01 00:02:59;;;;;;;;;;;;;;;7.20;100.00;99763.25;5129586;28;20039;-80
2021/04/01 00:05:27;;;;;;;;;;;;;;;7.16;100.00;99754.09;5115822;28;20388;-79
2021/04/01 00:07:54;;;;;;;;;;;;;;;7.17;100.00;99764.03;5134496;28;19923;-79
2021/04/01 00:10:22;;;;;;;;;;;;;;;7.17;100.00;99770.38;5115992;28;19923;-79
2021/04/01 00:13:01;;;;;;;;;;;;;;;7.07;100.00;99771.06;5126286;28;19924;-79
2021/04/01 00:15:28;;;;;;;;;;;;;;;7.07;100.00;99786.97;5109781;28;19959;-79
2021/04/01 00:17:55;;;;;;;;;;;;;;;7.03;100.00;99784.16;5119996;28;19923;-79
2021/04/01 00:20:22;;;;;;;;;;;;;;;7.02;100.00;99790.09;5121347;28;19980;-79
2021/04/01 00:22:50;;;;;;;;;;;;;;;7.02;100.00;99792.88;5132691;28;19923;-79
2021/04/01 00:25:17;;;;;;;;;;;;;;;7.10;100.00;99794.53;5115800;28;19923;-79
2021/04/01 00:27:44;;;;;;;;;;;;;;;7.15;100.00;99789.41;5115790;28;20023;-79
2021/04/01 00:30:11;;;;;;;;;;;;;;;7.11;100.00;99810.03;5134134;28;20350;-79
2021/04/01 00:32:38;;;;;;;;;;;;;;;7.23;100.00;99804.19;5133050;28;20427;-79
2021/04/01 00:35:05;;;;;;;;;;;;;;;7.11;100.00;99812.81;5115803;28;19924;-80
2021/04/01 00:37:32;;;;;;;;;;;;;;;7.08;100.00;99810.78;5134167;28;19968;-79
2021/04/01 00:39:59;;;;;;;;;;;;;;;7.05;100.00;99812.38;5132629;28;20354;-79
2021/04/01 00:42:26;;;;;;;;;;;;;;;7.13;100.00;99818.78;5115624;28;20331;-79
2021/04/01 00:44:58;;;;;;;;;;;;;;;7.10;100.00;99833.44;5115760;27;19946;-79
2021/04/01 00:47:25;;;;;;;;;;;;;;;7.13;100.00;99829.91;5137691;27;19936;-79
2021/04/01 00:49:52;;;;;;;;;;;;;;;7.13;100.00;99835.47;5137755;27;19939;-79
2021/04/01 00:52:24;;;;;;;;;;;;;;;7.07;100.00;99837.00;5137855;27;19923;-79
2021/04/01 00:54:51;;;;;;;;;;;;;;;7.08;100.00;99839.38;5119489;27;19935;-79
2021/04/01 00:57:17;;;;;;;;;;;;;;;7.08;100.00;99838.59;5098911;28;19993;-79
2021/04/01 00:59:44;;;;;;;;;;;;;;;7.06;100.00;99840.94;5117322;27;19927;-79
2021/04/01 01:02:11;;;;;;;;;;;;;;;7.09;100.00;99840.16;5137429;27;19930;-79
2021/04/01 01:04:38;;;;;;;;;;;;;;;7.03;100.00;99842.50;5137735;27;19924;-79
2021/04/01 01:07:04;;;;;;;;;;;;;;;7.12;100.00;99847.75;5119037;27;20022;-79
2021/04/01 01:09:31;;;;;;;;;;;;;;;7.09;100.00;99863.22;5098686;28;19923;-79
2021/04/01 01:11:58;;;;;;;;;;;;;;;7.00;100.00;99859.94;5065508;28;19947;-80
2021/04/01 01:14:25;;;;;;;;;;;;;;;6.95;100.00;99865.81;5118354;27;19977;-80
2021/04/01 01:16:51;;;;;;;;;;;;;;;6.96;100.00;99869.41;5137407;27;20026;-79
2021/04/01 01:19:18;;;;;;;;;;;;;;;6.92;100.00;99874.16;5122754;27;19929;-79
2021/04/01 01:21:45;;;;;;;;;;;;;;;6.97;100.00;99879.34;5117219;27;20014;-79
2021/04/01 01:24:15;;;;;;;;;;;;;;;7.00;100.00;99881.34;5118886;27;20315;-79
2021/04/01 01:26:42;;;;;;;;;;;;;;;7.00;100.00;99884.13;5136949;27;19931;-79
2021/04/01 01:29:09;;;;;;;;;;;;;;;7.06;100.00;99882.63;5103798;28;19924;-79
2021/04/01 01:31:40;;;;;;;;;;;;;;;6.95;100.00;99876.94;5130882;27;20076;-80
2021/04/01 01:34:06;;;;;;;;;;;;;;;6.98;100.00;99883.75;5137240;27;19927;-80
2021/04/01 01:36:33;;;;;;;;;;;;;;;7.03;100.00;99875.03;5118489;27;19934;-79
2021/04/01 01:38:59;;;;;;;;;;;;;;;7.05;100.00;99889.38;5103931;27;20397;-80
2021/04/01 01:41:26;;;;;;;;;;;;;;;7.04;100.00;99896.09;5137331;27;19923;-80
2021/04/01 01:43:52;;;;;;;;;;;;;;;6.94;100.00;99885.66;5104152;27;19963;-80
2021/04/01 01:46:19;;;;;;;;;;;;;;;6.96;100.00;99886.91;5136803;27;19924;-80
2021/04/01 01:48:46;;;;;;;;;;;;;;;6.93;100.00;99897.97;5136802;27;20332;-79
2021/04/01 01:51:13;;;;;;;;;;;;;;;6.93;100.00;99909.88;5129326;27;19934;-79
2021/04/01 01:53:39;;;;;;;;;;;;;;;6.95;100.00;99903.94;5116334;28;19923;-79
2021/04/01 01:56:06;;;;;;;;;;;;;;;6.88;100.00;99907.44;5117460;27;19923;-79
2021/04/01 01:58:33;;;;;;;;;;;;;;;6.90;100.00;99915.38;5125022;27;19928;-79
2021/04/01 02:01:00;;;;;;;;;;;;;;;6.90;100.00;99920.94;5133490;27;19934;-79
2021/04/01 02:03:27;;;;;;;;;;;;;;;6.88;100.00;99920.50;5136842;27;19924;-80
2021/04/01 02:05:53;;;;;;;;;;;;;;;6.84;100.00;99939.94;5136273;27;19923;-80
2021/04/01 02:08:20;;;;;;;;;;;;;;;6.82;100.00;99930.34;5136863;27;20391;-81
2021/04/01 02:10:48;;;;;;;;;;;;;;;6.83;100.00;99926.41;5122189;27;20089;-80
2021/04/01 02:13:19;;;;;;;;;;;;;;;6.77;100.00;99934.28;5118917;27;20274;-81
2021/04/01 02:15:47;;;;;;;;;;;;;;;6.79;100.00;99943.03;5104926;27;19924;-81
2021/04/01 02:18:15;;;;;;;;;;;;;;;6.84;100.00;99953.00;5081631;28;19973;-81
2021/04/01 02:20:46;;;;;;;;;;;;;;;6.85;100.00;99949.06;5099853;27;20301;-81
2021/04/01 02:23:14;;;;;;;;;;;;;;;6.85;100.00;99962.94;5123937;27;19935;-81
2021/04/01 02:25:41;;;;;;;;;;;;;;;6.78;100.00;99962.84;5119704;27;20382;-80
2021/04/01 02:28:08;;;;;;;;;;;;;;;6.75;100.00;99969.97;5129733;27;19924;-81
2021/04/01 02:30:35;;;;;;;;;;;;;;;6.67;100.00;99984.13;5123850;27;19923;-80
2021/04/01 02:33:03;;;;;;;;;;;;;;;6.65;100.00;99987.28;5097777;28;19934;-81
2021/04/01 02:35:30;;;;;;;;;;;;;;;6.62;100.00;99990.03;5104874;27;19963;-80
2021/04/01 02:37:57;;;;;;;;;;;;;;;6.58;100.00;99994.72;5106854;27;19977;-81
2021/04/01 02:40:23;;;;;;;;;;;;;;;6.60;100.00;100001.50;5087347;27;20008;-80
2021/04/01 02:42:50;;;;;;;;;;;;;;;6.53;100.00;100004.16;5109919;28;19939;-81
2021/04/01 02:45:17;;;;;;;;;;;;;;;6.46;100.00;100017.13;5090263;28;19923;-81
2021/04/01 02:47:44;;;;;;;;;;;;;;;6.50;100.00;100017.97;5121309;27;20385;-81
2021/04/01 02:50:11;;;;;;;;;;;;;;;6.48;100.00;100015.56;5102112;28;19924;-80
2021/04/01 02:52:39;;;;;;;;;;;;;;;6.45;100.00;100037.75;5130583;27;19923;-81
2021/04/01 02:55:07;;;;;;;;;;;;;;;6.44;100.00;100027.81;5121282;27;20383;-80
2021/04/01 02:57:34;;;;;;;;;;;;;;;6.38;100.00;100037.63;5127914;27;19956;-81
2021/04/01 03:00:04;;;;;;;;;;;;;;;6.39;100.00;100039.25;5115007;28;19959;-81
2021/04/01 03:02:32;;;;;;;;;;;;;;;6.34;100.00;100032.03;5115436;27;20264;-80
2021/04/01 03:05:03;;;;;;;;;;;;;;;6.36;100.00;100040.78;5119241;27;19923;-80
2021/04/01 03:07:30;;;;;;;;;;;;;;;6.36;100.00;100045.53;5134871;27;19946;-81
2021/04/01 03:09:56;;;;;;;;;;;;;;;6.28;100.00;100058.50;5113890;28;19924;-80
2021/04/01 03:12:23;;;;;;;;;;;;;;;6.26;100.00;100048.94;5096189;28;19923;-80
2021/04/01 03:14:50;;;;;;;;;;;;;;;6.24;100.00;100056.84;5134162;27;19923;-81
2021/04/01 03:17:17;;;;;;;;;;;;;;;6.22;100.00;100059.19;5123791;27;20363;-80
2021/04/01 03:19:43;;;;;;;;;;;;;;;6.31;100.00;100068.06;5114428;28;19923;-80
2021/04/01 03:22:10;;;;;;;;;;;;;;;6.32;100.00;100073.22;5114825;27;19966;-80
2021/04/01 03:24:37;;;;;;;;;;;;;;;6.29;100.00;100073.16;5128821;27;19951;-80
2021/04/01 03:27:04;;;;;;;;;;;;;;;6.28;100.00;100086.25;5114459;28;20379;-80
2021/04/01 03:29:30;;;;;;;;;;;;;;;6.29;100.00;100082.31;5114458;28;19927;-81
2021/04/01 03:31:57;;;;;;;;;;;;;;;6.32;100.00;100105.72;5110730;28;19928;-80
2021/04/01 03:34:24;;;;;;;;;;;;;;;6.24;100.00;100167.84;5125655;27;19924;-81
2021/04/01 03:36:50;;;;;;;;;;;;;;;6.22;100.00;100170.19;5099122;28;19946;-80
2021/04/01 03:39:17;;;;;;;;;;;;;;;6.28;100.00;100177.03;5085387;28;19923;-80
2021/04/01 03:41:43;;;;;;;;;;;;;;;6.19;100.00;100182.03;5133488;27;19950;-80
2021/04/01 03:44:10;;;;;;;;;;;;;;;6.26;100.00;100207.13;5134769;27;20369;-80
2021/04/01 03:46:36;;;;;;;;;;;;;;;6.21;100.00;100218.56;5134631;27;20294;-80
2021/04/01 03:49:03;;;;;;;;;;;;;;;6.16;100.00;100241.03;5134572;27;19927;-80
2021/04/01 03:51:30;;;;;;;;;;;;;;;6.16;100.00;100241.03;5122801;27;19969;-80
2021/04/01 03:53:56;;;;;;;;;;;;;;;6.11;100.00;100261.56;5118104;27;19923;-80
2021/04/01 03:56:23;;;;;;;;;;;;;;;6.07;100.00;100276.53;5124071;27;19985;-80
2021/04/01 04:12:09;;;;;;;;;;;;;;;5.98;100.00;100300.91;5114317;28;20053;-80
2021/04/01 04:14:42;;;;;;;;;;;;;;;5.93;100.00;100304.78;5114102;28;19985;-80
2021/04/01 04:17:09;;;;;;;;;;;;;;;5.89;100.00;100322.50;5095883;28;19973;-80
2021/04/01 04:19:36;;;;;;;;;;;;;;;5.83;100.00;100316.44;5119261;27;19924;-80
2021/04/01 04:22:02;;;;;;;;;;;;;;;5.92;100.00;100332.88;5108979;28;19924;-80
2021/04/01 04:24:32;;;;;;;;;;;;;;;5.91;100.00;100334.06;5135872;27;19947;-80
2021/04/01 04:27:07;;;;;;;;;;;;;;;5.84;100.00;100337.47;5138612;27;19923;-81
2021/04/01 04:29:34;;;;;;;;;;;;;;;5.79;100.00;100337.72;5119954;27;19923;-80
2021/04/01 04:32:01;;;;;;;;;;;;;;;5.79;100.00;100348.00;5138201;27;19924;-80
2021/04/01 04:34:28;;;;;;;;;;;;;;;5.84;100.00;100345.78;5126481;27;19954;-80
2021/04/01 04:36:54;;;;;;;;;;;;;;;5.77;100.00;100355.88;5136006;27;19924;-80
2021/04/01 04:39:21;;;;;;;;;;;;;;;5.74;100.00;100362.16;5138375;27;19923;-80
2021/04/01 04:41:48;;;;;;;;;;;;;;;5.70;100.00;100366.78;5120037;27;19931;-80
2021/04/01 04:44:15;;;;;;;;;;;;;;;5.72;100.00;100367.25;5120339;27;20018;-81
2021/04/01 04:46:41;;;;;;;;;;;;;;;5.70;100.00;100366.78;5119347;27;19927;-80
2021/04/01 04:49:08;;;;;;;;;;;;;;;5.72;100.00;100381.13;5113198;28;19977;-80
2021/04/01 04:51:35;;;;;;;;;;;;;;;5.63;100.00;100373.78;5095440;27;19973;-80
2021/04/01 04:54:03;;;;;;;;;;;;;;;5.59;100.00;100389.53;5118762;27;19950;-80
2021/04/01 04:56:31;;;;;;;;;;;;;;;5.68;100.00;100391.31;5078865;28;19927;-80
2021/04/01 04:59:09;;;;;;;;;;;;;;;5.56;100.00;100387.47;5094850;27;19923;-80
2021/04/01 05:06:56;;;;;;;;;;;;;;;5.51;100.00;100406.38;5137853;27;19923;-80
2021/04/01 05:09:23;;;;;;;;;;;;;;;5.53;100.00;100401.25;5137245;27;20023;-80
2021/04/01 05:11:49;;;;;;;;;;;;;;;5.47;100.00;100406.25;5101427;27;20015;-80
2021/04/01 05:14:16;;;;;;;;;;;;;;;5.49;100.00;100403.13;5100863;28;19923;-81
2021/04/01 05:16:43;;;;;;;;;;;;;;;5.54;100.00;100408.41;5119266;27;20016;-81
2021/04/01 05:19:12;;;;;;;;;;;;;;;5.47;100.00;100420.13;5122327;27;19923;-81
2021/04/01 05:24:09;;;;;;;;;;;;;;;5.39;100.00;100421.09;5098413;27;20016;-80
2021/04/01 05:29:16;;;;;;;;;;;;;;;5.41;100.00;100424.31;5125322;27;20018;-80
2021/04/01 05:31:43;;;;;;;;;;;;;;;5.43;100.00;100421.19;5104384;27;20043;-80
2021/04/01 05:34:23;;;;;;;;;;;;;;;5.39;100.00;100428.63;5105205;27;19951;-81
2021/04/01 05:36:51;;;;;;;;;;;;;;;5.40;100.00;100419.13;5123482;27;19931;-81
2021/04/01 05:39:32;;;;;;;;;;;;;;;5.41;100.00;100432.66;5126663;27;19924;-80
2021/04/01 05:42:00;;;;;;;;;;;;;;;5.34;100.00;100432.47;5137322;27;19930;-81
2021/04/01 05:44:33;;;;;;;;;;;;;;;5.42;100.00;100434.25;5122045;27;19924;-80
2021/04/01 05:47:26;;;;;;;;;;;;;;;5.39;100.00;100434.94;5100237;27;19932;-80
2021/04/01 05:50:42;;;;;;;;;;;;;;;5.42;100.00;100444.53;5103295;27;20370;-80
2021/04/01 06:03:50;;;;;;;;;;;;;;;5.28;100.00;100483.78;5117130;27;19934;-79
2021/04/01 06:06:58;;;;;;;;;;;;;;;5.27;100.00;100493.22;5117430;27;19924;-85
2021/04/01 06:09:20;;;;;;;;;;;;;;;5.28;100.00;100505.94;5117351;27;19949;-81
2021/04/01 06:11:49;;;;;;;;;;;;;;;5.29;100.00;100518.63;5107398;28;19981;-81
2021/04/01 06:14:20;;;;;;;;;;;;;;;5.23;100.00;100520.06;5127575;27;19928;-80
2021/04/01 06:16:47;;;;;;;;;;;;;;;5.27;100.00;100543.13;5115903;28;20011;-80
2021/04/01 06:19:16;;;;;;;;;;;;;;;5.29;100.00;100542.75;5095527;27;20003;-80
2021/04/01 06:21:47;;;;;;;;;;;;;;;5.25;100.00;100553.78;5116055;28;20087;-82
2021/04/01 06:24:22;;;;;;;;;;;;;;;5.19;100.00;100562.69;5131889;27;19985;-81
2021/04/01 06:26:51;;;;;;;;;;;;;;;5.13;100.00;100575.97;5097888;28;19924;-81
2021/04/01 06:29:19;;;;;;;;;;;;;;;5.16;100.00;100569.75;5082552;28;19935;-80
2021/04/01 06:31:50;;;;;;;;;;;;;;;5.08;100.00;100580.94;5116663;27;20373;-81
2021/04/01 06:34:29;;;;;;;;;;;;;;;5.16;100.00;100636.25;5107536;28;20411;-80
2021/04/01 06:36:57;;;;;;;;;;;;;;;5.20;100.00;100958.63;5101419;27;19923;-81
2021/04/01 06:39:23;;;;;;;;;;;;;;;5.33;100.00;100968.59;5118255;27;20010;-80
2021/04/01 06:42:16;;;;;;;;;;;;;;;5.24;100.00;100976.19;5121557;27;19923;-80
2021/04/01 06:44:58;;;;;;;;;;;;;;;5.14;100.00;100975.81;5133796;27;20393;-80
2021/04/01 06:47:29;;;;;;;;;;;;;;;5.11;100.00;100970.97;5097313;28;19924;-80
2021/04/01 06:50:05;;;;;;;;;;;;;;;5.09;100.00;100979.59;5111318;28;19931;-81
2021/04/01 06:52:36;;;;;;;;;;;;;;;5.09;100.00;100979.59;5097160;28;20364;-80
2021/04/01 06:58:08;;;;;;;;;;;;;;;4.96;100.00;100980.72;5134185;27;19977;-80
2021/04/01 07:03:18;;;;;;;;;;;;;;;4.99;100.00;100996.66;5134756;27;20393;-80
2021/04/01 07:05:51;;;;;;;;;;;;;;;4.96;100.00;100991.00;5122920;27;20378;-79
2021/04/01 07:08:29;;;;;;;;;;;;;;;4.96;100.00;101008.44;5120851;27;19946;-80
2021/04/01 07:11:01;;;;;;;;;;;;;;;4.85;100.00;101012.75;5117584;27;19976;-81
2021/04/01 07:13:31;;;;;;;;;;;;;;;4.98;100.00;101011.66;5095848;27;20519;-81
2021/04/01 07:16:15;;;;;;;;;;;;;;;5.05;100.00;101020.25;5117406;27;20351;-81
2021/04/01 07:46:34;;;;;;;;;;;;;;;5.15;100.00;101235.19;5039957;28;19940;-79
2021/04/01 07:49:06;;;;;;;;;;;;;;;5.10;100.00;101230.63;5035484;28;19924;-80
2021/04/01 07:54:27;;;;;;;;;;;;;;;5.10;100.00;101250.03;5045499;28;19928;-80
2021/04/01 07:57:07;;;;;;;;;;;;;;;5.04;100.00;101245.81;5050775;28;19925;-80
2021/04/01 08:00:02;;;;;;;;;;;;;;;4.98;100.00;101258.25;5027646;28;20418;-79
2021/04/01 08:05:34;;;;;;;;;;;;;;;4.98;100.00;101288.72;5009327;28;20061;-79
2021/04/01 08:08:06;;;;;;;;;;;;;;;5.05;100.00;101289.03;5010025;28;19930;-78
2021/04/01 08:10:39;;;;;;;;;;;;;;;5.05;100.00;101283.50;5010300;28;19926;-79
2021/04/01 08:13:30;;;;;;;;;;;;;;;4.92;100.00;101295.59;5003915;28;19933;-88
2021/04/01 08:16:02;;;;;;;;;;;;;;;5.04;100.00;101304.03;5025370;28;19925;-79
2021/04/01 08:18:34;;;;;;;;;;;;;;;5.07;100.00;101319.97;5043290;28;19947;-81
2021/04/01 08:21:04;;;;;;;;;;;;;;;5.11;100.00;101320.97;5047732;28;19933;-79
2021/04/01 08:23:59;;;;;;;;;;;;;;;5.27;100.00;101329.53;5065236;28;19925;-78
2021/04/01 08:27:16;;;;;;;;;;;;;;;5.21;100.00;101331.66;5048195;28;20037;-78
2021/04/01 08:33:24;;;;;;;;;;;;;;;5.17;100.00;101327.94;5066091;28;19928;-81
2021/04/01 08:36:12;;;;;;;;;;;;;;;5.31;100.00;101328.53;5055234;28;20011;-83
2021/04/01 08:38:59;;;;;;;;;;;;;;;5.39;100.00;101337.94;5069651;28;19923;-85
2021/04/01 08:42:04;;;;;;;;;;;;;;;5.30;100.00;101334.41;5099425;28;19924;-83
2021/04/01 08:45:34;;;;;;;;;;;;;;;5.39;100.00;101338.75;5048356;28;19931;-84
2021/04/01 08:48:25;;;;;;;;;;;;;;;5.25;100.00;101324.31;5061149;28;19963;-83
2021/04/01 08:50:51;;;;;;;;;;;;;;;5.11;100.00;101309.88;5060405;28;19925;-84
2021/04/01 08:53:21;;;;;;;;;;;;;;;5.23;100.00;101318.28;5045682;28;20551;-81
2021/04/01 08:56:08;;;;;;;;;;;;;;;5.30;100.00;101324.13;5073895;28;20489;-81
2021/04/01 08:58:42;;;;;;;;;;;;;;;5.32;100.00;101321.00;5062406;28;19924;-81
2021/04/01 09:01:15;;;;;;;;;;;;;;;5.23;100.00;101323.84;5027754;28;19925;-79
2021/04/01 09:03:44;;;;;;;;;;;;;;;5.34;100.00;101322.31;5099788;28;19923;-82
2021/04/01 09:06:12;;;;;;;;;;;;;;;5.28;100.00;101315.34;5129410;27;19984;-80
2021/04/01 09:08:44;;;;;;;;;;;;;;;5.32;100.00;101315.47;5125043;27;19923;-88
2021/04/01 09:11:11;;;;;;;;;;;;;;;5.41;100.00;101314.28;5100569;27;19923;-87
2021/04/01 09:13:44;;;;;;;;;;;;;;;5.36;100.00;101322.78;5101989;27;19960;-87
2021/04/01 09:16:27;;;;;;;;;;;;;;;5.31;100.00;101309.13;5055640;28;19924;-88
2021/04/01 09:19:00;;;;;;;;;;;;;;;5.32;100.00;101302.41;5086525;28;20440;-83
2021/04/01 09:21:31;;;;;;;;;;;;;;;5.22;100.00;101302.00;5103317;27;19927;-82
2021/04/01 09:24:00;;;;;;;;;;;;;;;5.45;100.00;101309.66;5097067;27;20386;-83
2021/04/01 09:26:26;;;;;;;;;;;;;;;5.50;100.00;101303.13;5070027;28;19930;-82
2021/04/01 09:29:04;;;;;;;;;;;;;;;5.40;100.00;101284.94;5124827;27;20056;-83
2021/04/01 09:34:27;;;;;;;;;;;;;;;5.22;100.00;101280.63;5073233;27;20051;-85
2021/04/01 09:37:05;;;;;;;;;;;;;;;5.14;100.00;101269.59;5118705;27;19931;-85
2021/04/01 09:39:34;;;;;;;;;;;;;;;5.12;100.00;101288.50;5079670;28;19924;-82
2021/04/01 09:42:05;;;;;;;;;;;;;;;5.27;100.00;101293.50;5108735;27;19931;-85
2021/04/01 09:44:33;;;;;;;;;;;;;;;5.28;100.00;101287.63;5131959;27;20531;-87
2021/04/01 09:46:59;;;;;;;;;;;;;;;5.25;100.00;101288.28;5083701;27;19976;-84
2021/04/01 09:49:27;;;;;;;;;;;;;;;5.22;100.00;101283.41;5105188;27;20168;-81
2021/04/01 09:51:54;;;;;;;;;;;;;;;5.24;100.00;101274.75;5092928;28;19963;-81
2021/04/01 09:54:24;;;;;;;;;;;;;;;5.37;100.00;101280.06;5113384;28;20016;-79
2021/04/01 09:56:55;;;;;;;;;;;;;;;5.45;100.00;101267.28;5105531;27;20026;-81
2021/04/01 09:59:39;;;;;;;;;;;;;;;5.58;100.00;101264.25;5118228;27;20441;-81
2021/04/01 10:02:08;;;;;;;;;;;;;;;5.52;100.00;101265.59;5121209;27;20382;-81
2021/04/01 10:04:38;;;;;;;;;;;;;;;5.75;100.00;101254.97;5118153;27;19972;-81
2021/04/01 10:07:11;;;;;;;;;;;;;;;5.67;100.00;101250.31;5119298;27;19924;-81
2021/04/01 10:09:48;;;;;;;;;;;;;;;5.52;100.00;101242.59;5097701;28;19950;-81
2021/04/01 10:12:18;;;;;;;;;;;;;;;5.51;100.00;101230.69;5115657;27;19928;-80
2021/04/01 10:14:53;;;;;;;;;;;;;;;5.45;100.00;101226.47;5094183;28;20404;-82
2021/04/01 10:17:20;;;;;;;;;;;;;;;5.67;100.00;101221.75;5095759;28;19977;-87
2021/04/01 10:19:47;;;;;;;;;;;;;;;5.56;100.00;101216.63;5111105;27;20374;-82
2021/04/01 10:22:23;;;;;;;;;;;;;;;5.51;100.00;101216.03;5114412;27;19923;-82
2021/04/01 10:25:13;;;;;;;;;;;;;;;5.44;100.00;101211.00;5105173;28;19924;-82
2021/04/01 10:27:46;;;;;;;;;;;;;;;5.48;100.00;101203.63;5086611;27;19923;-85
2021/04/01 10:30:13;;;;;;;;;;;;;;;5.42;100.00;101196.66;5090982;27;19932;-85
2021/04/01 10:33:00;;;;;;;;;;;;;;;5.41;100.00;101186.72;5122644;27;19924;-83
2021/04/01 10:35:28;;;;;;;;;;;;;;;5.56;100.00;101197.19;5093452;28;19931;-90
2021/04/01 10:37:57;;;;;;;;;;;;;;;5.47;100.00;101195.66;5094373;28;19927;-79
2021/04/01 10:40:24;;;;;;;;;;;;;;;5.28;100.00;101193.38;5115728;27;19928;-79
2021/04/01 10:43:07;;;;;;;;;;;;;;;5.45;100.00;101195.97;5103925;28;20371;-79
2021/04/01 10:45:41;;;;;;;;;;;;;;;5.40;100.00;101184.28;5095347;28;19927;-79
2021/04/01 10:48:14;;;;;;;;;;;;;;;5.46;100.00;101182.94;5117894;27;19972;-78
2021/04/01 10:50:40;;;;;;;;;;;;;;;5.38;100.00;101170.78;5114680;27;20298;-78
2021/04/01 10:53:16;;;;;;;;;;;;;;;5.41;100.00;101180.34;5095400;28;20306;-79
2021/04/01 10:55:42;;;;;;;;;;;;;;;5.54;100.00;101185.63;5125781;27;20344;-79
2021/04/01 10:58:09;;;;;;;;;;;;;;;5.47;100.00;101168.72;5122514;27;19977;-78
2021/04/01 11:00:37;;;;;;;;;;;;;;;5.42;100.00;101154.28;5117792;27;19980;-78
2021/04/01 11:03:05;;;;;;;;;;;;;;;5.55;100.00;101165.09;5120563;27;19923;-78
2021/04/01 11:05:33;;;;;;;;;;;;;;;5.49;100.00;101147.03;5130480;27;19930;-79
2021/04/01 11:08:20;;;;;;;;;;;;;;;5.63;100.00;101143.16;5122149;27;19934;-78
2021/04/01 11:10:56;;;;;;;;;;;;;;;5.75;100.00;101140.41;5115044;27;19946;-78
2021/04/01 11:13:30;;;;;;;;;;;;;;;5.78;100.00;101148.06;5103799;27;20363;-79
2021/04/01 11:15:58;;;;;;;;;;;;;;;5.75;100.00;101134.88;5119790;27;20405;-79
2021/04/01 11:18:27;;;;;;;;;;;;;;;5.82;100.00;101130.41;5118125;27;19924;-79
2021/04/01 11:20:55;;;;;;;;;;;;;;;5.91;100.00;101122.03;5104608;27;19927;-79
2021/04/01 11:23:23;;;;;;;;;;;;;;;5.97;100.00;101112.31;5094617;27;19924;-78
2021/04/01 11:25:52;;;;;;;;;;;;;;;6.06;100.00;101101.94;5101533;28;19924;-79
2021/04/01 11:28:19;;;;;;;;;;;;;;;5.98;100.00;101089.78;5115595;27;20503;-79
2021/04/01 11:30:51;;;;;;;;;;;;;;;5.92;100.00;101084.78;5117776;27;19924;-79
2021/04/01 11:33:18;;;;;;;;;;;;;;;5.73;100.00;101065.03;5115973;27;20420;-79
2021/04/01 11:35:48;;;;;;;;;;;;;;;5.75;100.00;101059.97;5101004;28;20463;-79
2021/04/01 11:38:17;;;;;;;;;;;;;;;5.85;100.00;101052.03;5115851;27;20247;-79
2021/04/01 11:41:00;;;;;;;;;;;;;;;5.73;100.00;101042.84;5083838;28;19991;-76
2021/04/01 11:43:31;;;;;;;;;;;;;;;5.81;100.00;101026.13;5116503;28;20084;-80
2021/04/01 11:46:10;;;;;;;;;;;;;;;5.80;100.00;101015.38;5097268;27;19950;-80
2021/04/01 11:48:37;;;;;;;;;;;;;;;6.02;100.00;101006.63;5119756;27;19931;-80
2021/04/01 11:51:06;;;;;;;;;;;;;;;5.78;100.00;100982.44;5105093;28;20416;-79
2021/04/01 11:53:33;;;;;;;;;;;;;;;5.92;100.00;100962.69;5116489;28;19923;-79
2021/04/01 11:56:00;;;;;;;;;;;;;;;5.98;100.00;100945.47;5116275;27;19930;-79
2021/04/01 11:58:30;;;;;;;;;;;;;;;5.89;100.00;100930.09;5115308;27;20370;-78
2021/04/01 12:01:10;;;;;;;;;;;;;;;5.81;100.00;100908.78;5116377;27;19924;-79
2021/04/01 12:06:25;;;;;;;;;;;;;;;5.72;100.00;100891.44;5119539;28;19924;-79
2021/04/01 12:08:52;;;;;;;;;;;;;;;5.83;100.00;100864.91;5117225;28;19931;-79
2021/04/01 12:11:18;;;;;;;;;;;;;;;5.82;100.00;100852.97;5105427;28;19930;-79
2021/04/01 12:13:45;;;;;;;;;;;;;;;5.86;100.00;100842.78;5121046;28;20357;-79
2021/04/01 12:16:16;;;;;;;;;;;;;;;5.89;100.00;100808.81;5113555;28;19930;-77
2021/04/01 12:18:44;;;;;;;;;;;;;;;5.91;100.00;100789.06;5115751;28;19934;-79
2021/04/01 12:21:11;;;;;;;;;;;;;;;5.96;100.00;100753.53;5122325;28;20512;-79
2021/04/01 12:23:41;;;;;;;;;;;;;;;6.05;100.00;100733.94;5122140;28;19951;-79
2021/04/01 12:26:08;;;;;;;;;;;;;;;6.19;100.00;100723.25;5117592;28;20022;-79
2021/04/01 12:28:42;;;;;;;;;;;;;;;6.15;100.00;100700.16;5096529;28;20015;-79
2021/04/01 12:31:14;;;;;;;;;;;;;;;6.16;100.00;100691.47;5095366;28;19989;-80
2021/04/01 12:33:59;;;;;;;;;;;;;;;6.04;100.00;100676.84;5117578;28;19923;-80
2021/04/01 12:36:32;;;;;;;;;;;;;;;6.12;100.00;100670.34;5119356;28;20024;-79
2021/04/01 12:39:00;;;;;;;;;;;;;;;5.99;100.00;100657.66;5132107;28;20454;-80
2021/04/01 12:41:28;;;;;;;;;;;;;;;6.06;100.00;100647.56;5114495;28;19977;-79
2021/04/01 12:43:55;;;;;;;;;;;;;;;6.12;100.00;100648.13;5101349;27;19924;-79
2021/04/01 12:46:22;;;;;;;;;;;;;;;6.11;100.00;100633.44;5106869;28;19923;-80
2021/04/01 12:48:55;;;;;;;;;;;;;;;5.92;100.00;100638.88;5101914;28;20337;-79
2021/04/01 12:51:23;;;;;;;;;;;;;;;5.97;100.00;100621.94;5116772;28;19928;-79
2021/04/01 12:54:01;;;;;;;;;;;;;;;6.08;100.00;100617.50;5098497;28;20030;-79
2021/04/01 12:56:33;;;;;;;;;;;;;;;6.02;100.00;100609.78;5123947;27;19930;-79
2021/04/01 12:59:04;;;;;;;;;;;;;;;6.09;100.00;100590.56;5083100;28;20014;-79
2021/04/01 13:01:35;;;;;;;;;;;;;;;6.07;100.00;100587.34;5116912;28;19924;-79
2021/04/01 13:04:08;;;;;;;;;;;;;;;6.01;100.00;100572.94;5119278;27;19924;-79
2021/04/01 13:11:48;;;;;;;;;;;;;;;6.11;100.00;100543.81;5098050;28;20359;-79
2021/04/01 13:14:24;;;;;;;;;;;;;;;6.26;100.00;100534.66;5118918;27;20022;-79
2021/04/01 13:16:51;;;;;;;;;;;;;;;6.40;100.00;100523.91;5100808;28;19923;-79
2021/04/01 13:19:22;;;;;;;;;;;;;;;6.40;100.00;100507.25;5101784;27;19939;-79
2021/04/01 13:26:55;;;;;;;;;;;;;;;6.54;100.00;100480.59;5118931;27;20445;-79
2021/04/01 13:29:23;;;;;;;;;;;;;;;6.66;100.00;100466.63;5116256;28;19924;-79
2021/04/01 13:31:55;;;;;;;;;;;;;;;6.38;100.00;100451.28;5085306;27;19930;-79
2021/04/01 13:35:01;;;;;;;;;;;;;;;6.55;100.00;100389.78;5117859;27;19923;-80
2021/04/01 13:37:24;;;;;;;;;;;;;;;6.49;100.00;100378.16;5110306;28;20603;-79
2021/04/01 13:39:59;;;;;;;;;;;;;;;6.48;100.00;100361.88;5088383;27;20029;-79
2021/04/01 13:42:31;;;;;;;;;;;;;;;6.70;100.00;100283.34;5122193;27;19927;-80
2021/04/01 13:45:05;;;;;;;;;;;;;;;6.75;100.00;100296.94;5103292;28;20385;-80
2021/04/01 13:47:34;;;;;;;;;;;;;;;6.53;100.00;100289.34;5105232;28;19928;-79
2021/04/01 13:50:01;;;;;;;;;;;;;;;6.78;100.00;100287.88;5104687;28;20363;-80
2021/04/01 13:52:35;;;;;;;;;;;;;;;6.80;100.00;100277.19;5106937;28;19934;-79
2021/04/01 14:11:10;;;;;;;;;;;;;;;7.09;100.00;100263.41;5114557;27;20000;-79
2021/04/01 14:13:37;;;;;;;;;;;;;;;7.27;100.00;100260.91;5125252;27;20370;-79
2021/04/01 14:16:03;;;;;;;;;;;;;;;7.21;100.00;100254.88;5112359;27;19985;-79
2021/04/01 14:18:31;;;;;;;;;;;;;;;7.29;100.00;100255.78;5115386;27;20427;-80
2021/04/01 14:21:01;;;;;;;;;;;;;;;7.27;100.00;100258.94;5130774;27;19923;-80
2021/04/01 14:23:29;;;;;;;;;;;;;;;7.43;100.00;100250.47;5100810;28;19924;-80
2021/04/01 14:26:00;;;;;;;;;;;;;;;7.37;100.00;100251.97;5100790;28;19931;-79
2021/04/01 14:28:29;;;;;;;;;;;;;;;7.30;100.00;100246.28;5118964;27;19924;-79
2021/04/01 14:30:56;;;;;;;;;;;;;;;7.30;100.00;100249.06;5114570;28;19931;-80
2021/04/01 14:33:25;;;;;;;;;;;;;;;7.39;100.00;100246.84;5114400;28;19924;-79
2021/04/01 14:35:52;;;;;;;;;;;;;;;7.45;100.00;100242.56;5117774;27;20340;-79
2021/04/01 14:38:21;;;;;;;;;;;;;;;7.52;100.00;100241.84;5120279;27;19932;-80
2021/04/01 14:41:05;;;;;;;;;;;;;;;7.50;100.00;100242.22;5121752;27;19934;-79
2021/04/01 14:43:38;;;;;;;;;;;;;;;7.85;100.00;100241.91;5108607;27;20003;-80
2021/04/01 14:46:05;;;;;;;;;;;;;;;7.75;100.00;100237.81;5118339;27;20018;-80